Cincinnati Northern Kentucky International Airport
KCVG : now visible

Airfield :











YOU CAN JOIN US ON...

 
LOGIN :

Register | Disclaimer

   EN    FR    IT 

 









Legend :    VFR   Marginal VFR   IFR   Intensive IFR   Very Intensive IFR
Visi :
Ceiling :
>= 8 km
>= 3000ft
5 to 8 km
1000 to 3000 ft
1500m to 5 km
500 to 1000 ft
800 to 1500m
200 to 500 ft
< 800m
< 200 ft
Symbols :   Thunderstorms  Fog  Heavy snow  Heavy precipitations  Wind > 20 kt






- Airport Elevation : 896 ft
- IATA code : CVG


KCVG - Cincinnati Northern Kentucky International

CURRENT METAR :
  • 171152Z 18015G22KT 3SM -RA BR SCT011 BKN018 OVC038 17/16 A2988 RMK AO2 SFC VIS 6 LTG DSNT NE AND E RAB09 CIG 010 36R SLP109 P0005 60023 70023 T01670161 10228 20161 58006 $

EXPIRED METARs :
  • 171136Z 18016G25KT 2SM R36C/5500VP6000FT -RA BR FEW009 BKN022 OVC028 17/16 A2988 RMK AO2 SFC VIS 4 LTG DSNT E AND SE RAB09 P0004 T01670161 $
  • 171120Z 19014G20KT 2SM R36C/6000VP6000FT -RA BR FEW017 BKN026 OVC041 17/16 A2989 RMK AO2 SFC VIS 3 LTG DSNT SE AND S RAB09 P0000 T01670161 $
  • 171052Z 17013KT 10SM SCT040 BKN055 OVC075 17/16 A2988 RMK AO2 PK WND 19026/0953 LTG DSNT SW RAE30 SLP108 P0004 T01670161 $
  • 171024Z 18012G21KT 7SM -RA FEW009 BKN050 OVC070 16/16 A2989 RMK AO2 PK WND 19026/0953 CIG 040 36R P0004 T01610161 $
  • 170952Z 19013G19KT 5SM -RA BR FEW017 BKN034 OVC070 17/16 A2990 RMK AO2 SLP117 P0006 T01670156 $
  • 170852Z 16009KT 10SM -RA SCT050 BKN065 OVC085 17/16 A2990 RMK AO2 SLP115 P0006 60008 T01670156 50006 $
  • 170752Z 21009KT 10SM -RA FEW047 SCT065 OVC100 18/13 A2991 RMK AO2 PK WND 22027/0711 SLP120 P0002 T01830133 $

TAF KCVG
Valid from the 17 at 12:00 until the 18 at 18:00 UTC


171132Z 1712/1818 19015G28KT P6SM BKN050
TEMPO 1712/1713 5SM -SHRA BKN030
FM171700 22017G29KT P6SM SCT060
FM180000 27012KT P6SM SKC
FM180400 26006KT P6SM SKC
KZID FIR / North America



MET'MAP, your aeronautical weather chart ! - Copyright ORBIFLY December 2007 - Disclaimer

ORBIFLY MET'MAP TEAM :

Programming & Development : Alexandra Zaïnal
Original concept : Baudouin d'Aumeries
Technical & hardware support : Manuel Goepfert
Assistance : Marc-Olivier Méhu




SOURCES & CREDITS :

   NOAA       Earth
Advisory